Time;durP1;ratioP1;P1;durP2;ratioP2;P2;SDS_P1;SDS_P2;PMS_P1;PMS_P2;Temp;Humidity;BMP_temperature;BMP_pressure;BME280_temperature;BME280_humidity;BME280_pressure;Samples;Min_cycle;Max_cycle;Signal;HPM_P1;HPM_P2
2022/12/23 00:01:15;;;;;;;57.67;27.95;;;7.30;99.90;;;;;;5110800;27;20051;-81
2022/12/23 00:03:41;;;;;;;53.45;25.90;;;7.30;99.90;;;;;;5110776;27;20046;-81
2022/12/23 00:06:13;;;;;;;52.35;25.48;;;8.00;99.90;;;;;;5094086;27;20035;-82
2022/12/23 00:08:39;;;;;;;60.13;28.90;;;7.30;99.90;;;;;;5129119;27;20479;-81
2022/12/23 00:11:14;;;;;;;58.72;27.23;;;7.30;99.90;;;;;;5111268;27;20640;-82
2022/12/23 00:16:25;;;;;;;64.45;26.02;;;7.80;99.90;;;;;;5128923;27;20095;-82
2022/12/23 00:18:51;;;;;;;51.83;24.98;;;7.30;99.90;;;;;;5129182;27;20047;-82
2022/12/23 00:21:17;;;;;;;55.60;26.73;;;8.10;99.90;;;;;;5128683;27;20070;-80
2022/12/23 00:23:45;;;;;;;64.40;27.00;;;8.20;99.90;;;;;;5094216;27;20097;-82
2022/12/23 00:26:16;;;;;;;56.65;26.30;;;8.50;99.90;;;;;;5110024;27;20043;-82
2022/12/23 00:28:42;;;;;;;52.35;25.98;;;8.50;99.90;;;;;;5131681;27;20496;-82
2022/12/23 00:31:09;;;;;;;52.30;25.92;;;7.30;99.90;;;;;;5136214;27;20429;-82
2022/12/23 00:33:37;;;;;;;57.55;26.73;;;7.70;99.90;;;;;;5133978;27;20097;-82
2022/12/23 00:36:16;;;;;;;47.25;25.00;;;7.70;99.90;;;;;;5111385;27;20039;-82
2022/12/23 00:44:10;;;;;;;72.43;29.88;;;7.30;99.90;;;;;;5095919;27;20039;-82
2022/12/23 00:46:36;;;;;;;55.05;26.90;;;7.30;99.90;;;;;;5109769;27;20039;-82
2022/12/23 00:51:47;;;;;;;71.13;28.13;;;8.40;99.90;;;;;;5127765;27;20058;-82
2022/12/23 00:54:12;;;;;;;60.15;27.33;;;7.20;99.90;;;;;;5110901;27;20035;-82
2022/12/23 00:56:38;;;;;;;53.13;24.80;;;7.20;99.90;;;;;;5127678;27;20043;-82
2022/12/23 00:59:04;;;;;;;66.55;26.92;;;7.20;99.90;;;;;;5127843;27;20091;-82
2022/12/23 01:07:00;;;;;;;53.95;26.00;;;7.70;99.90;;;;;;5128388;27;20058;-82
2022/12/23 01:09:26;;;;;;;61.78;26.55;;;7.30;99.90;;;;;;5127515;27;20039;-82
2022/12/23 01:11:52;;;;;;;65.70;28.35;;;8.30;99.90;;;;;;5128041;27;20092;-82
2022/12/23 01:14:17;;;;;;;62.92;27.52;;;8.30;99.90;;;;;;5109553;27;20039;-81
2022/12/23 01:16:44;;;;;;;56.30;26.25;;;7.20;99.90;;;;;;5127997;27;20049;-81
2022/12/23 01:19:09;;;;;;;62.35;27.20;;;7.20;99.90;;;;;;5110098;27;20043;-81
2022/12/23 01:21:35;;;;;;;57.85;24.83;;;7.20;99.90;;;;;;5091829;27;20402;-80
2022/12/23 01:24:02;;;;;;;50.67;24.92;;;7.20;99.90;;;;;;5109579;27;20042;-81
2022/12/23 01:26:28;;;;;;;46.70;22.58;;;7.20;99.90;;;;;;5108468;27;20054;-80
2022/12/23 01:28:55;;;;;;;56.95;25.83;;;7.80;99.90;;;;;;5109921;27;20046;-81
2022/12/23 01:31:22;;;;;;;55.33;26.45;;;7.90;99.90;;;;;;5091833;27;20043;-81
2022/12/23 01:33:48;;;;;;;59.40;26.30;;;7.20;99.90;;;;;;5091702;27;20054;-81
2022/12/23 01:36:14;;;;;;;63.58;26.95;;;7.60;99.90;;;;;;5092033;27;20031;-81
2022/12/23 01:38:40;;;;;;;51.47;24.58;;;7.30;99.90;;;;;;5108818;27;20671;-81
2022/12/23 01:41:05;;;;;;;50.47;23.58;;;8.20;99.90;;;;;;5075737;27;20593;-81
2022/12/23 01:43:50;;;;;;;54.78;25.52;;;7.70;99.90;;;;;;5108365;27;20041;-81
2022/12/23 01:46:16;;;;;;;59.67;25.42;;;7.20;99.90;;;;;;5109172;27;20446;-81
2022/12/23 01:48:47;;;;;;;52.47;24.05;;;7.20;99.90;;;;;;5091684;27;20043;-81
2022/12/23 01:51:18;;;;;;;51.47;26.73;;;7.20;99.90;;;;;;5108540;27;20051;-81
2022/12/23 01:53:48;;;;;;;58.70;25.42;;;7.70;99.90;;;;;;5110781;27;20079;-81
2022/12/23 01:56:15;;;;;;;58.97;25.02;;;7.20;99.90;;;;;;5113441;27;20035;-82
2022/12/23 01:58:49;;;;;;;54.92;25.63;;;7.60;99.90;;;;;;5115679;27;20054;-80
2022/12/23 02:04:03;;;;;;;58.53;25.73;;;7.20;99.90;;;;;;5109329;27;20160;-81
2022/12/23 02:09:34;;;;;;;42.80;19.23;;;7.10;99.90;;;;;;5106958;27;20075;-81
2022/12/23 02:12:35;;;;;;;69.50;26.52;;;7.10;99.90;;;;;;5109018;27;20035;-81
2022/12/23 02:18:09;;;;;;;53.28;25.30;;;7.40;99.90;;;;;;5107150;27;20390;-82
2022/12/23 02:21:04;;;;;;;61.92;27.27;;;7.10;99.90;;;;;;5109211;27;20051;-82
2022/12/23 02:23:38;;;;;;;57.97;24.92;;;7.10;99.90;;;;;;5108640;27;20114;-82
2022/12/23 02:26:31;;;;;;;61.35;26.40;;;7.10;99.90;;;;;;5107507;27;20046;-81
2022/12/23 02:29:39;;;;;;;45.13;17.80;;;7.10;99.90;;;;;;5108991;27;20192;-82
2022/12/23 02:32:23;;;;;;;60.63;24.48;;;7.10;99.90;;;;;;5070323;27;20138;-81
2022/12/23 02:35:13;;;;;;;51.45;23.85;;;7.10;99.90;;;;;;5090290;27;20394;-82
2022/12/23 02:37:55;;;;;;;49.13;23.30;;;7.10;99.90;;;;;;5109220;27;20410;-82
2022/12/23 02:40:46;;;;;;;60.90;26.13;;;7.10;99.90;;;;;;5107235;27;20233;-82
2022/12/23 02:43:21;;;;;;;56.80;25.35;;;7.10;99.90;;;;;;5090602;27;20486;-81
2022/12/23 02:46:08;;;;;;;52.42;23.50;;;7.10;99.90;;;;;;5108368;27;20047;-82
2022/12/23 02:48:58;;;;;;;61.17;26.42;;;7.80;99.90;;;;;;5106892;27;20053;-82
2022/12/23 02:51:29;;;;;;;51.97;24.63;;;7.10;99.90;;;;;;5107296;28;20054;-81
2022/12/23 02:53:59;;;;;;;54.25;25.02;;;7.10;99.90;;;;;;5108235;27;20042;-81
2022/12/23 02:56:27;;;;;;;57.95;25.00;;;7.10;99.90;;;;;;5089995;28;20067;-81
2022/12/23 02:58:57;;;;;;;55.30;25.95;;;7.10;99.90;;;;;;5092235;27;20126;-81
2022/12/23 03:01:26;;;;;;;56.33;25.52;;;7.10;99.90;;;;;;5090019;27;20047;-81
2022/12/23 03:03:51;;;;;;;59.22;26.13;;;7.10;99.90;;;;;;5090762;27;20040;-81
2022/12/23 03:06:36;;;;;;;55.75;25.55;;;7.10;99.90;;;;;;5073603;28;20047;-81
2022/12/23 03:09:02;;;;;;;62.92;25.17;;;7.10;99.90;;;;;;5107174;28;20043;-82
2022/12/23 03:12:09;;;;;;;56.15;23.77;;;8.00;99.90;;;;;;5091861;28;20031;-82
2022/12/23 03:14:47;;;;;;;55.40;23.20;;;7.10;99.90;;;;;;5062194;28;20059;-81
2022/12/23 03:17:25;;;;;;;62.65;25.10;;;7.10;99.90;;;;;;5090239;28;20078;-82
2022/12/23 03:20:07;;;;;;;51.42;22.88;;;7.10;99.90;;;;;;5094691;28;20042;-81
2022/12/23 03:22:57;;;;;;;54.17;21.95;;;7.10;99.90;;;;;;5114663;28;20508;-80
2022/12/23 03:25:52;;;;;;;50.55;20.42;;;7.10;99.90;;;;;;5096600;28;20058;-80
2022/12/23 03:28:25;;;;;;;50.95;20.75;;;7.10;99.90;;;;;;5091775;27;20039;-81
2022/12/23 03:30:54;;;;;;;45.45;19.05;;;7.60;99.90;;;;;;5111250;27;20047;-81
2022/12/23 03:33:29;;;;;;;59.78;21.27;;;7.60;99.90;;;;;;5111863;27;20402;-81
2022/12/23 03:36:00;;;;;;;51.55;20.45;;;7.40;99.90;;;;;;5111331;27;20039;-81
2022/12/23 03:38:27;;;;;;;50.65;19.02;;;8.20;99.90;;;;;;5094574;27;20043;-81
2022/12/23 03:40:57;;;;;;;47.97;19.23;;;7.10;99.90;;;;;;5111535;27;20046;-81
2022/12/23 03:43:31;;;;;;;46.85;20.88;;;7.60;99.90;;;;;;5111080;27;20386;-81
2022/12/23 03:46:02;;;;;;;44.95;17.77;;;7.00;99.90;;;;;;5112707;27;20486;-82
2022/12/23 03:48:33;;;;;;;60.17;21.98;;;7.50;99.90;;;;;;5094328;27;20402;-80
2022/12/23 03:51:09;;;;;;;51.35;19.08;;;7.00;99.90;;;;;;5095364;27;20385;-81
2022/12/23 03:53:41;;;;;;;48.78;19.88;;;7.80;99.90;;;;;;5095053;27;20129;-80
2022/12/23 03:56:12;;;;;;;64.28;21.67;;;7.00;99.90;;;;;;5093908;27;20035;-80
2022/12/23 03:58:43;;;;;;;49.28;19.92;;;7.90;99.90;;;;;;5095516;27;20049;-81
2022/12/23 04:01:25;;;;;;;50.25;19.50;;;7.00;99.90;;;;;;5110113;27;20557;-81
2022/12/23 04:04:02;;;;;;;46.25;20.05;;;7.00;99.90;;;;;;5111458;27;20092;-81
2022/12/23 04:06:37;;;;;;;43.85;18.48;;;7.00;99.90;;;;;;5094184;27;20039;-81
2022/12/23 04:09:06;;;;;;;55.47;19.42;;;7.00;99.90;;;;;;5093066;27;20049;-81
2022/12/23 04:11:34;;;;;;;56.10;19.70;;;7.70;99.90;;;;;;5111927;27;20043;-82
2022/12/23 04:13:59;;;;;;;48.95;19.85;;;7.00;99.90;;;;;;5093391;27;20118;-81
2022/12/23 04:16:26;;;;;;;53.53;19.50;;;7.00;99.90;;;;;;5094672;27;20138;-81
2022/12/23 04:18:51;;;;;;;56.15;19.83;;;7.00;99.90;;;;;;5110597;27;20402;-81
2022/12/23 04:21:17;;;;;;;57.53;20.30;;;7.10;99.90;;;;;;5093868;27;20039;-81
2022/12/23 04:23:43;;;;;;;47.22;19.23;;;7.00;99.90;;;;;;5093680;27;20035;-81
2022/12/23 04:26:08;;;;;;;51.65;20.13;;;7.00;99.90;;;;;;5110027;27;20047;-81
2022/12/23 04:28:35;;;;;;;46.20;18.13;;;8.00;99.90;;;;;;5111587;27;20076;-81
2022/12/23 04:31:01;;;;;;;41.17;17.92;;;8.10;99.90;;;;;;5092419;27;20047;-82
2022/12/23 04:33:27;;;;;;;53.25;20.50;;;8.10;99.90;;;;;;5111231;27;20074;-82
2022/12/23 04:35:52;;;;;;;50.20;19.63;;;7.00;99.90;;;;;;5075783;27;20046;-82
2022/12/23 04:38:18;;;;;;;53.53;20.60;;;7.00;99.90;;;;;;5093975;27;20036;-82
2022/12/23 04:40:47;;;;;;;55.25;21.17;;;7.70;99.90;;;;;;5092238;27;20043;-81
2022/12/23 04:43:13;;;;;;;52.03;18.65;;;7.50;99.90;;;;;;5110458;27;20070;-82
2022/12/23 04:45:39;;;;;;;48.63;18.55;;;7.10;99.90;;;;;;5094965;27;20043;-81
2022/12/23 04:48:04;;;;;;;44.90;18.38;;;8.10;99.90;;;;;;5095483;27;20115;-81
2022/12/23 04:50:30;;;;;;;48.40;19.13;;;7.00;99.90;;;;;;5099875;27;20405;-82
2022/12/23 04:52:56;;;;;;;41.65;16.67;;;7.00;99.90;;;;;;5114531;27;20043;-82
2022/12/23 04:55:22;;;;;;;44.05;17.50;;;6.90;99.90;;;;;;5096620;27;20139;-82
2022/12/23 04:57:47;;;;;;;41.58;16.85;;;6.90;99.90;;;;;;5076174;27;20035;-81
2022/12/23 05:00:13;;;;;;;41.97;18.15;;;6.90;99.90;;;;;;5109965;27;20039;-80
2022/12/23 05:02:39;;;;;;;46.70;18.85;;;6.90;99.90;;;;;;5093376;27;20035;-81
2022/12/23 05:05:05;;;;;;;44.58;16.80;;;7.40;99.90;;;;;;5092132;27;20039;-81
2022/12/23 05:07:31;;;;;;;41.17;16.65;;;6.90;99.90;;;;;;5110860;27;20082;-81
2022/12/23 05:10:00;;;;;;;46.15;17.73;;;6.90;99.90;;;;;;5091757;27;20051;-81
2022/12/23 05:12:27;;;;;;;40.97;17.42;;;7.50;99.90;;;;;;5110252;27;20054;-81
2022/12/23 05:14:53;;;;;;;39.22;16.98;;;7.30;99.90;;;;;;5127679;27;20047;-81
2022/12/23 05:17:19;;;;;;;45.05;16.65;;;6.90;99.90;;;;;;5110310;27;20481;-81
2022/12/23 05:19:44;;;;;;;39.85;17.48;;;6.90;99.90;;;;;;5092896;27;20096;-81
2022/12/23 05:22:10;;;;;;;43.15;16.83;;;6.90;99.90;;;;;;5109033;27;20563;-81
2022/12/23 05:24:36;;;;;;;41.42;17.33;;;7.70;99.90;;;;;;5128780;27;20105;-81
2022/12/23 05:27:07;;;;;;;41.25;17.48;;;6.90;99.90;;;;;;5126244;27;20062;-81
2022/12/23 05:29:33;;;;;;;39.97;15.57;;;8.10;99.90;;;;;;5093547;27;20043;-80
2022/12/23 05:31:58;;;;;;;34.00;15.07;;;6.90;99.90;;;;;;5126746;27;20050;-80
2022/12/23 05:34:24;;;;;;;44.78;16.15;;;7.70;99.90;;;;;;5092145;27;20059;-80
2022/12/23 05:36:50;;;;;;;37.63;16.23;;;6.90;99.90;;;;;;5127417;27;20075;-81
2022/12/23 05:39:15;;;;;;;39.63;15.80;;;7.00;99.90;;;;;;5108660;27;20040;-80
2022/12/23 05:41:41;;;;;;;37.28;15.77;;;6.80;99.90;;;;;;5128281;27;20035;-80
2022/12/23 05:44:07;;;;;;;44.17;16.65;;;7.70;99.90;;;;;;5108671;27;20050;-82
2022/12/23 05:46:32;;;;;;;37.65;15.98;;;7.80;99.90;;;;;;5092533;27;20047;-81
2022/12/23 05:48:58;;;;;;;44.22;16.20;;;6.80;99.90;;;;;;5108288;27;20074;-82
2022/12/23 05:51:24;;;;;;;38.35;15.52;;;7.10;99.90;;;;;;5109237;27;20587;-81
2022/12/23 05:53:49;;;;;;;46.92;16.42;;;6.70;99.90;;;;;;5090617;27;20031;-80
2022/12/23 05:56:15;;;;;;;37.00;16.30;;;6.70;99.90;;;;;;5108838;27;20046;-81
2022/12/23 05:58:41;;;;;;;40.60;16.00;;;6.60;99.90;;;;;;5074880;27;20075;-79
2022/12/23 06:01:06;;;;;;;41.45;16.73;;;6.60;99.90;;;;;;5074703;27;20087;-81
2022/12/23 06:03:32;;;;;;;36.53;16.42;;;7.20;99.90;;;;;;5127769;27;20039;-81
2022/12/23 06:05:58;;;;;;;43.28;15.65;;;7.60;99.90;;;;;;5090660;27;20039;-81
2022/12/23 06:08:24;;;;;;;42.15;16.25;;;6.90;99.90;;;;;;5128049;27;20039;-81
2022/12/23 06:10:49;;;;;;;34.58;14.20;;;6.70;99.90;;;;;;5110674;27;20111;-81
2022/12/23 06:13:15;;;;;;;42.90;17.00;;;7.20;99.90;;;;;;5133312;27;20079;-81
2022/12/23 06:15:41;;;;;;;41.17;16.50;;;7.50;99.90;;;;;;5113979;27;20039;-81
2022/12/23 06:18:06;;;;;;;36.92;15.82;;;7.60;99.90;;;;;;5128337;27;20060;-81
2022/12/23 06:20:32;;;;;;;49.28;19.52;;;6.60;99.90;;;;;;5110126;27;20046;-81
2022/12/23 06:22:58;;;;;;;40.25;16.48;;;6.60;99.90;;;;;;5127037;27;20050;-82
2022/12/23 06:25:23;;;;;;;40.80;16.15;;;6.60;99.90;;;;;;5092327;27;20073;-79
2022/12/23 06:27:49;;;;;;;37.75;16.58;;;6.60;99.90;;;;;;5108398;27;20039;-80
2022/12/23 06:30:15;;;;;;;36.15;15.13;;;6.80;99.90;;;;;;5091862;27;20049;-80
2022/12/23 06:32:40;;;;;;;44.58;16.88;;;6.50;99.90;;;;;;5108116;27;20085;-80
2022/12/23 06:35:07;;;;;;;40.83;16.58;;;6.40;99.90;;;;;;5126538;27;20138;-80
2022/12/23 06:37:33;;;;;;;40.83;16.63;;;6.40;99.90;;;;;;5091987;27;20047;-81
2022/12/23 06:39:59;;;;;;;41.42;16.73;;;6.60;99.90;;;;;;5108203;27;20043;-80
2022/12/23 06:42:25;;;;;;;51.10;17.60;;;6.50;99.90;;;;;;5092428;27;20126;-80
2022/12/23 06:44:50;;;;;;;43.60;17.73;;;6.50;99.90;;;;;;5107411;27;20077;-80
2022/12/23 06:47:16;;;;;;;44.40;18.10;;;6.50;99.90;;;;;;5108743;27;20092;-79
2022/12/23 06:49:42;;;;;;;47.28;17.65;;;6.50;99.90;;;;;;5073586;27;20043;-80
2022/12/23 06:52:07;;;;;;;47.67;19.67;;;7.10;99.90;;;;;;5090972;27;20062;-80
2022/12/23 06:54:33;;;;;;;50.53;19.25;;;7.30;99.90;;;;;;5125998;27;20039;-82
2022/12/23 06:56:59;;;;;;;46.50;18.65;;;6.60;99.90;;;;;;5073918;27;20035;-80
2022/12/23 06:59:24;;;;;;;50.85;19.65;;;6.50;99.90;;;;;;5091224;28;20151;-82
2022/12/23 07:01:50;;;;;;;43.92;18.95;;;6.90;99.90;;;;;;5090430;28;20035;-82
2022/12/23 07:04:16;;;;;;;54.58;18.65;;;6.50;99.90;;;;;;5090808;28;20520;-82
2022/12/23 07:06:41;;;;;;;55.58;20.55;;;6.50;99.90;;;;;;5089799;28;20067;-82
2022/12/23 07:09:07;;;;;;;53.00;21.27;;;7.50;99.90;;;;;;5090944;28;20155;-82
2022/12/23 07:11:33;;;;;;;52.55;19.48;;;6.80;99.90;;;;;;5106762;28;20183;-82
2022/12/23 07:13:59;;;;;;;49.83;20.77;;;7.20;99.90;;;;;;5107312;28;20050;-82
2022/12/23 07:16:25;;;;;;;49.17;20.27;;;7.50;99.90;;;;;;5091139;28;20539;-82
2022/12/23 07:18:51;;;;;;;45.15;18.85;;;6.60;99.90;;;;;;5125439;28;20491;-82
2022/12/23 07:21:16;;;;;;;56.97;20.08;;;7.70;99.90;;;;;;5108653;28;20053;-82
2022/12/23 07:23:42;;;;;;;62.78;20.45;;;7.60;99.90;;;;;;5106988;28;20047;-82
2022/12/23 07:26:08;;;;;;;42.15;17.83;;;6.90;99.90;;;;;;5107924;28;20047;-82
2022/12/23 07:28:34;;;;;;;41.72;18.13;;;6.70;99.90;;;;;;5073206;28;20476;-82
2022/12/23 07:31:00;;;;;;;41.90;18.35;;;7.30;99.90;;;;;;5107451;28;20035;-83
2022/12/23 07:33:25;;;;;;;47.72;18.33;;;7.30;99.90;;;;;;5107488;28;20608;-81
2022/12/23 07:35:56;;;;;;;47.22;18.33;;;6.60;99.90;;;;;;5090540;28;20497;-81
2022/12/23 07:38:22;;;;;;;50.83;19.50;;;6.70;99.90;;;;;;5097796;28;20032;-82
2022/12/23 07:40:48;;;;;;;45.50;18.55;;;6.70;99.90;;;;;;5097226;28;20050;-82
2022/12/23 07:43:13;;;;;;;41.33;17.55;;;7.30;99.90;;;;;;5108564;28;20475;-83
2022/12/23 07:45:39;;;;;;;45.35;18.40;;;6.70;99.90;;;;;;5090331;28;20035;-83
2022/12/23 07:48:05;;;;;;;46.15;17.17;;;7.20;99.90;;;;;;5090054;28;20084;-82
2022/12/23 07:50:31;;;;;;;43.17;16.25;;;6.70;99.90;;;;;;5106511;28;20050;-82
2022/12/23 07:52:56;;;;;;;41.33;16.00;;;6.70;99.90;;;;;;5090188;28;20047;-83
2022/12/23 07:55:22;;;;;;;39.60;16.10;;;6.70;99.90;;;;;;5090277;28;20440;-82
2022/12/23 07:57:52;;;;;;;40.20;15.65;;;6.70;99.90;;;;;;5073295;28;20478;-82
2022/12/23 08:00:19;;;;;;;34.13;16.08;;;6.70;99.90;;;;;;5107121;28;20061;-83
2022/12/23 08:02:45;;;;;;;37.70;15.07;;;6.70;99.90;;;;;;5106466;28;20040;-83
2022/12/23 08:05:12;;;;;;;35.38;13.80;;;6.70;99.90;;;;;;5090156;28;20057;-82
2022/12/23 08:07:38;;;;;;;38.40;14.00;;;6.70;99.90;;;;;;5072688;28;20117;-82
2022/12/23 08:10:05;;;;;;;37.28;14.75;;;6.70;99.90;;;;;;5089621;28;20071;-82
2022/12/23 08:12:31;;;;;;;34.38;13.23;;;6.70;99.90;;;;;;5089996;28;20077;-82
2022/12/23 08:14:57;;;;;;;30.85;13.40;;;6.70;99.90;;;;;;5089667;28;20092;-83
2022/12/23 08:17:28;;;;;;;30.58;12.73;;;6.70;99.90;;;;;;5094233;27;20042;-82
2022/12/23 08:19:54;;;;;;;37.92;13.70;;;7.80;99.90;;;;;;5093155;27;20043;-82
2022/12/23 08:22:20;;;;;;;33.03;12.48;;;6.80;99.90;;;;;;5111093;27;20058;-83
2022/12/23 08:24:46;;;;;;;30.15;12.25;;;8.00;99.90;;;;;;5111604;27;20043;-82
2022/12/23 08:27:12;;;;;;;26.38;12.32;;;6.80;99.90;;;;;;5113164;27;20043;-83
2022/12/23 08:29:41;;;;;;;28.40;11.30;;;7.30;99.90;;;;;;5093812;27;20110;-82
2022/12/23 08:32:07;;;;;;;30.85;11.45;;;6.80;99.90;;;;;;5093220;27;20528;-83
2022/12/23 08:34:33;;;;;;;28.50;11.15;;;7.00;99.90;;;;;;5077330;27;20043;-83
2022/12/23 08:36:59;;;;;;;30.75;11.57;;;7.50;99.90;;;;;;5093010;27;20074;-84
2022/12/23 08:39:25;;;;;;;25.92;10.70;;;7.60;99.90;;;;;;5093042;27;20148;-83
2022/12/23 08:41:50;;;;;;;28.92;10.57;;;7.70;99.90;;;;;;5109662;27;20054;-83
2022/12/23 08:44:17;;;;;;;23.10;11.02;;;7.00;99.90;;;;;;5076361;27;20075;-82
2022/12/23 08:46:43;;;;;;;30.10;11.73;;;7.30;99.90;;;;;;5092676;27;20040;-84
2022/12/23 08:49:09;;;;;;;29.35;11.30;;;6.60;99.90;;;;;;5092928;27;20544;-82
2022/12/23 08:51:36;;;;;;;28.05;10.93;;;6.60;99.90;;;;;;5093253;27;20580;-83
2022/12/23 08:54:02;;;;;;;27.95;11.10;;;7.80;99.90;;;;;;5075609;27;20082;-83
2022/12/23 08:56:31;;;;;;;31.08;11.52;;;6.50;99.90;;;;;;5110088;27;20039;-83
2022/12/23 08:58:57;;;;;;;26.65;10.15;;;7.30;99.90;;;;;;5109831;27;20105;-83
2022/12/23 09:01:25;;;;;;;27.90;12.18;;;6.50;99.90;;;;;;5109924;27;20104;-82
2022/12/23 09:03:51;;;;;;;37.30;12.55;;;6.30;99.90;;;;;;5111061;27;20054;-82
2022/12/23 09:06:20;;;;;;;30.42;12.18;;;6.70;99.90;;;;;;5101525;27;20051;-82
2022/12/23 09:08:47;;;;;;;31.48;12.18;;;6.40;99.90;;;;;;5116346;27;20069;-82
2022/12/23 09:11:19;;;;;;;30.88;12.35;;;6.40;99.90;;;;;;5093764;27;20565;-82
2022/12/23 09:13:45;;;;;;;23.63;10.90;;;6.40;99.90;;;;;;5110927;27;20043;-82
2022/12/23 09:16:11;;;;;;;33.40;11.65;;;6.50;99.90;;;;;;5110414;27;20150;-82
2022/12/23 09:18:37;;;;;;;26.95;11.80;;;6.50;99.90;;;;;;5109864;27;20066;-82
2022/12/23 09:21:15;;;;;;;30.83;11.68;;;6.60;99.90;;;;;;5092680;27;20495;-82
2022/12/23 09:23:41;;;;;;;32.58;13.75;;;6.60;99.90;;;;;;5110355;27;20084;-82
2022/12/23 09:26:08;;;;;;;32.42;13.25;;;6.70;99.90;;;;;;5109802;27;20051;-82
2022/12/23 09:28:34;;;;;;;32.25;12.93;;;7.10;99.90;;;;;;5108492;27;20130;-82
2022/12/23 09:31:08;;;;;;;42.22;16.05;;;7.80;99.90;;;;;;5109256;27;20078;-82
2022/12/23 09:33:33;;;;;;;36.25;14.68;;;6.80;99.90;;;;;;5108579;27;20055;-82
2022/12/23 09:36:00;;;;;;;49.08;14.43;;;7.80;99.90;;;;;;5075284;27;20465;-82
2022/12/23 09:38:26;;;;;;;36.28;14.65;;;6.80;99.90;;;;;;5108944;27;20053;-82
2022/12/23 09:40:51;;;;;;;37.15;14.35;;;7.10;99.90;;;;;;5092434;27;20039;-82
2022/12/23 09:43:44;;;;;;;35.92;14.45;;;6.90;99.90;;;;;;5091672;27;20448;-82
2022/12/23 09:46:17;;;;;;;34.15;13.90;;;6.90;99.90;;;;;;5108785;27;20043;-82
2022/12/23 09:48:59;;;;;;;28.67;13.55;;;6.90;99.90;;;;;;5091950;27;20039;-83
2022/12/23 09:51:26;;;;;;;35.78;13.30;;;7.00;99.90;;;;;;5091541;27;20104;-82
2022/12/23 09:54:08;;;;;;;28.02;13.13;;;7.00;99.90;;;;;;5109170;27;20439;-83
2022/12/23 09:57:01;;;;;;;29.67;13.23;;;7.10;99.90;;;;;;5108606;27;20490;-83
2022/12/23 09:59:54;;;;;;;37.58;13.98;;;7.20;99.90;;;;;;5091424;27;20042;-83
2022/12/23 10:02:37;;;;;;;37.92;12.77;;;7.30;99.90;;;;;;5108501;27;20604;-82
2022/12/23 10:05:15;;;;;;;28.70;11.95;;;7.30;99.90;;;;;;5108239;27;20088;-82
2022/12/23 10:08:07;;;;;;;34.35;13.73;;;7.30;99.90;;;;;;5109117;27;20461;-83
2022/12/23 10:10:44;;;;;;;32.17;14.18;;;8.20;99.90;;;;;;5060963;27;20054;-83
2022/12/23 10:13:26;;;;;;;34.28;15.02;;;7.00;99.90;;;;;;5127181;27;20079;-83
2022/12/23 10:15:54;;;;;;;23.92;10.40;;;7.60;99.90;;;;;;5091637;27;20047;-82
2022/12/23 10:18:45;;;;;;;27.55;13.52;;;7.70;99.90;;;;;;5074748;27;20370;-83
2022/12/23 10:21:31;;;;;;;34.78;14.18;;;8.60;99.90;;;;;;5108328;27;20458;-83
2022/12/23 10:24:03;;;;;;;35.95;13.95;;;7.80;99.90;;;;;;5108655;27;20054;-83
2022/12/23 10:26:40;;;;;;;27.60;10.13;;;7.80;99.90;;;;;;5091200;27;20100;-82
2022/12/23 10:29:18;;;;;;;31.45;13.55;;;7.80;99.90;;;;;;5107779;27;20058;-83
2022/12/23 10:32:02;;;;;;;31.00;13.30;;;8.40;99.90;;;;;;5094568;27;20074;-81
2022/12/23 10:34:43;;;;;;;24.40;11.82;;;7.80;99.90;;;;;;5116171;27;20659;-81
2022/12/23 10:37:15;;;;;;;30.45;13.10;;;7.90;99.90;;;;;;5111579;27;20031;-83
2022/12/23 10:39:55;;;;;;;26.40;12.98;;;7.90;99.90;;;;;;5107893;27;20047;-82
2022/12/23 10:42:38;;;;;;;28.98;13.73;;;8.50;99.90;;;;;;5108158;27;20502;-83
2022/12/23 10:45:32;;;;;;;32.00;13.95;;;7.90;99.90;;;;;;5091747;27;20053;-83
2022/12/23 10:48:37;;;;;;;25.67;12.75;;;7.90;99.90;;;;;;5109568;27;20043;-83
2022/12/23 10:51:34;;;;;;;27.52;14.18;;;7.90;99.90;;;;;;5092006;27;20082;-84
2022/12/23 10:54:09;;;;;;;29.02;13.55;;;7.90;99.90;;;;;;5107729;27;20201;-83
2022/12/23 10:56:36;;;;;;;27.17;13.30;;;7.90;99.90;;;;;;5090764;28;20051;-84
2022/12/23 10:59:06;;;;;;;26.98;12.98;;;7.90;99.90;;;;;;5091011;27;20133;-82
2022/12/23 11:01:32;;;;;;;24.40;11.82;;;7.90;99.90;;;;;;5107975;28;20039;-83
2022/12/23 11:04:31;;;;;;;21.48;12.88;;;7.90;99.90;;;;;;5090283;28;20054;-82
2022/12/23 11:06:58;;;;;;;33.30;13.30;;;7.80;99.90;;;;;;5076568;28;20066;-82
2022/12/23 11:09:26;;;;;;;26.98;13.35;;;7.80;99.90;;;;;;5107615;28;20433;-82
2022/12/23 11:11:58;;;;;;;27.02;13.10;;;7.90;99.90;;;;;;5125526;28;20047;-82
2022/12/23 11:14:36;;;;;;;30.75;12.25;;;7.80;99.90;;;;;;5109982;28;20050;-83
2022/12/23 11:17:03;;;;;;;24.42;10.70;;;7.80;99.90;;;;;;5110126;28;20043;-84
2022/12/23 11:19:28;;;;;;;30.58;15.20;;;7.80;99.90;;;;;;5110605;28;20047;-83
2022/12/23 11:21:59;;;;;;;24.30;11.55;;;7.70;99.90;;;;;;5109055;28;20073;-83
2022/12/23 11:24:30;;;;;;;27.15;13.40;;;7.70;99.90;;;;;;5093199;28;20092;-82
2022/12/23 11:27:02;;;;;;;25.80;11.93;;;7.70;99.90;;;;;;5109611;28;20563;-83
2022/12/23 11:29:34;;;;;;;18.00;10.10;;;7.70;99.90;;;;;;5093474;28;20098;-83
2022/12/23 11:32:03;;;;;;;30.73;14.32;;;7.70;99.90;;;;;;5129246;27;20515;-83
2022/12/23 11:34:36;;;;;;;30.60;12.88;;;7.70;99.90;;;;;;5087858;28;20052;-83
2022/12/23 11:37:02;;;;;;;29.73;12.63;;;7.70;99.90;;;;;;5106856;28;20648;-83
2022/12/23 11:39:34;;;;;;;32.63;14.13;;;7.80;99.90;;;;;;5105938;28;20043;-83
2022/12/23 11:42:22;;;;;;;24.58;8.93;;;7.80;99.90;;;;;;5106151;28;20050;-83
2022/12/23 11:44:52;;;;;;;35.42;12.90;;;8.50;99.90;;;;;;5106463;28;20048;-83
2022/12/23 11:47:32;;;;;;;27.10;11.93;;;7.80;99.90;;;;;;5105546;28;20159;-82
2022/12/23 11:50:00;;;;;;;18.40;9.52;;;7.80;99.90;;;;;;5108113;28;20079;-82
2022/12/23 11:52:28;;;;;;;15.90;9.63;;;7.80;99.90;;;;;;5109233;28;20052;-82
2022/12/23 11:54:58;;;;;;;16.65;8.73;;;7.90;99.90;;;;;;5110240;28;20473;-83
2022/12/23 11:57:31;;;;;;;14.63;9.02;;;7.80;99.90;;;;;;5095693;28;20028;-84
2022/12/23 12:00:01;;;;;;;14.70;8.38;;;7.80;99.90;;;;;;5118711;28;20071;-82
2022/12/23 12:02:51;;;;;;;16.10;9.25;;;7.80;99.90;;;;;;5121277;28;20100;-80
2022/12/23 12:05:24;;;;;;;13.10;8.45;;;7.70;99.90;;;;;;5111785;28;20048;-84
2022/12/23 12:07:50;;;;;;;;;;;7.70;99.90;;;;;;5094713;28;20483;-83
2022/12/23 12:10:30;;;;;;;16.33;8.85;;;7.70;99.90;;;;;;5110790;28;19955;-84
2022/12/23 12:13:02;;;;;;;10.55;7.00;;;8.80;99.90;;;;;;5110151;28;20054;-85
2022/12/23 12:15:45;;;;;;;13.32;7.28;;;7.60;99.90;;;;;;5111696;28;20387;-83
2022/12/23 12:18:14;;;;;;;16.00;8.05;;;7.60;99.90;;;;;;5110280;28;20043;-84
2022/12/23 12:20:49;;;;;;;10.93;7.25;;;8.00;99.90;;;;;;5111316;28;20036;-82
2022/12/23 12:23:28;;;;;;;14.45;7.65;;;7.70;99.90;;;;;;5112095;28;20079;-85
2022/12/23 12:25:59;;;;;;;11.77;8.02;;;7.50;99.90;;;;;;5111210;28;20118;-83
2022/12/23 12:28:33;;;;;;;12.52;7.95;;;7.50;99.90;;;;;;5094153;28;20117;-83
2022/12/23 12:31:10;;;;;;;22.02;9.05;;;7.50;99.90;;;;;;5111334;28;20040;-83
2022/12/23 12:34:04;;;;;;;18.42;9.73;;;7.50;99.90;;;;;;5111248;27;20052;-83
2022/12/23 12:36:39;;;;;;;20.35;9.18;;;8.40;99.90;;;;;;5114829;27;20039;-83
2022/12/23 12:39:14;;;;;;;18.63;9.02;;;7.40;99.90;;;;;;5113057;27;20047;-84
2022/12/23 12:41:54;;;;;;;17.38;9.43;;;7.40;99.90;;;;;;5132657;27;20334;-84
2022/12/23 12:44:36;;;;;;;18.55;9.88;;;7.40;99.90;;;;;;5131194;27;20054;-83
2022/12/23 12:47:31;;;;;;;20.67;10.55;;;7.50;99.90;;;;;;5113149;27;20062;-82
2022/12/23 12:50:01;;;;;;;20.67;10.77;;;7.40;99.90;;;;;;5110755;27;20059;-85
2022/12/23 12:52:30;;;;;;;24.42;12.00;;;7.50;99.90;;;;;;5113408;27;20047;-85
2022/12/23 12:55:13;;;;;;;23.95;11.23;;;7.40;99.90;;;;;;5132067;27;20053;-84
2022/12/23 12:57:39;;;;;;;16.45;8.73;;;8.30;99.90;;;;;;5096274;27;20043;-85
2022/12/23 13:00:16;;;;;;;23.48;11.63;;;7.50;99.90;;;;;;5112517;27;20051;-84
2022/12/23 13:02:51;;;;;;;23.88;12.05;;;7.50;99.90;;;;;;5113492;27;20071;-84
2022/12/23 13:05:41;;;;;;;21.35;11.15;;;7.50;99.90;;;;;;5131363;27;20274;-84
2022/12/23 13:08:28;;;;;;;18.75;11.02;;;7.50;99.90;;;;;;5114310;27;20072;-85
2022/12/23 13:11:23;;;;;;;28.13;11.57;;;7.50;99.90;;;;;;5132748;27;20047;-84
2022/12/23 13:14:20;;;;;;;21.27;10.80;;;7.50;99.90;;;;;;5065480;27;20044;-84
2022/12/23 13:16:54;;;;;;;21.70;12.35;;;7.50;99.90;;;;;;5098859;27;20130;-84
2022/12/23 13:19:29;;;;;;;30.10;15.80;;;7.60;99.90;;;;;;5131830;27;20043;-85
2022/12/23 13:22:09;;;;;;;29.20;11.75;;;7.60;99.90;;;;;;5130896;27;20046;-83
2022/12/23 13:24:56;;;;;;;25.27;11.95;;;7.60;99.90;;;;;;5100575;27;20062;-84